Time,TemperatureF,DewpointF,PressureIn,WindDirection,WindDirectionDegrees,WindSpeedMPH,WindSpeedGustMPH,Humidity,HourlyPrecipIn,Conditions,Clouds,dailyrainin,SoftwareType,DateUTC
2013-01-09 00:08:00,31.4,14.9,30.47,NNE,27,3.0,3.0,50,0.00,,,0.00,Wunderground v.1.15,2013-01-09 07:08:00,
2013-01-09 00:18:00,31.3,14.8,30.47,NE,52,2.0,3.0,50,0.00,,,0.00,Wunderground v.1.15,2013-01-09 07:18:00,
2013-01-09 00:28:00,31.3,14.8,30.47,North,7,3.0,3.0,50,0.00,,,0.00,Wunderground v.1.15,2013-01-09 07:28:00,
2013-01-09 00:38:00,31.2,14.7,30.47,NE,50,2.0,2.0,50,0.00,,,0.00,Wunderground v.1.15,2013-01-09 07:38:00,
2013-01-09 00:48:00,31.0,14.5,30.47,NNW,346,2.0,2.0,50,0.00,,,0.00,Wunderground v.1.15,2013-01-09 07:48:00,
2013-01-09 00:53:00,30.9,14.4,30.48,NNW,335,2.0,3.0,50,0.00,,,0.00,Wunderground v.1.15,2013-01-09 07:53:00,
2013-01-09 00:58:00,31.0,14.5,30.48,NW,318,3.0,3.0,50,0.00,,,0.00,Wunderground v.1.15,2013-01-09 07:58:00,
2013-01-09 01:08:00,30.8,14.3,30.48,NW,319,3.0,3.0,50,0.00,,,0.00,Wunderground v.1.15,2013-01-09 08:08:00,
2013-01-09 01:13:00,30.7,14.2,30.48,NW,321,4.0,4.0,50,0.00,,,0.00,Wunderground v.1.15,2013-01-09 08:13:00,
2013-01-09 01:23:00,30.4,14.0,30.48,NNE,13,3.0,3.0,50,0.00,,,0.00,Wunderground v.1.15,2013-01-09 08:23:00,
2013-01-09 01:33:00,30.1,14.1,30.48,North,353,3.0,3.0,51,0.00,,,0.00,Wunderground v.1.15,2013-01-09 08:33:00,
2013-01-09 01:38:00,30.0,14.0,30.48,NNW,342,3.0,3.0,51,0.00,,,0.00,Wunderground v.1.15,2013-01-09 08:38:00,
2013-01-09 01:43:00,29.9,13.9,30.48,NNW,336,3.0,3.0,51,0.00,,,0.00,Wunderground v.1.15,2013-01-09 08:43:00,
2013-01-09 01:53:00,29.7,13.8,30.47,NNE,15,4.0,4.0,51,0.00,,,0.00,Wunderground v.1.15,2013-01-09 08:53:00,
2013-01-09 01:58:00,29.6,13.2,30.48,NE,36,4.0,4.0,50,0.00,,,0.00,Wunderground v.1.15,2013-01-09 08:58:00,
2013-01-09 02:08:00,29.2,12.8,30.49,NE,54,2.0,2.0,50,0.00,,,0.00,Wunderground v.1.15,2013-01-09 09:08:00,
2013-01-09 02:13:00,29.1,12.8,30.49,NNE,32,2.0,2.0,50,0.00,,,0.00,Wunderground v.1.15,2013-01-09 09:13:00,
2013-01-09 02:18:00,29.0,12.7,30.49,NNW,345,4.0,4.0,50,0.00,,,0.00,Wunderground v.1.15,2013-01-09 09:18:00,
2013-01-09 02:28:00,29.1,12.8,30.49,NNE,20,5.0,5.0,50,0.00,,,0.00,Wunderground v.1.15,2013-01-09 09:28:00,
2013-01-09 02:38:00,29.2,12.8,30.50,NNE,27,2.0,2.0,50,0.00,,,0.00,Wunderground v.1.15,2013-01-09 09:38:00,
2013-01-09 02:48:00,29.1,12.8,30.50,NNE,27,2.0,2.0,50,0.00,,,0.00,Wunderground v.1.15,2013-01-09 09:48:00,
2013-01-09 02:53:00,28.8,12.9,30.50,North,355,2.0,3.0,51,0.00,,,0.00,Wunderground v.1.15,2013-01-09 09:53:00,
2013-01-09 02:58:00,28.6,12.7,30.50,NNE,27,3.0,3.0,51,0.00,,,0.00,Wunderground v.1.15,2013-01-09 09:58:00,
2013-01-09 03:08:00,28.1,12.3,30.50,NW,319,4.0,4.0,51,0.00,,,0.00,Wunderground v.1.15,2013-01-09 10:08:00,
2013-01-09 03:13:00,27.7,11.5,30.51,SW,215,2.0,4.0,50,0.00,,,0.00,Wunderground v.1.15,2013-01-09 10:13:00,
2013-01-09 03:18:00,27.4,11.2,30.51,NE,35,0.0,1.0,50,0.00,,,0.00,Wunderground v.1.15,2013-01-09 10:18:00,
2013-01-09 03:28:00,26.8,11.1,30.51,NNE,17,2.0,2.0,51,0.00,,,0.00,Wunderground v.1.15,2013-01-09 10:28:00,
2013-01-09 03:38:00,26.6,10.9,30.51,NE,45,4.0,4.0,51,0.00,,,0.00,Wunderground v.1.15,2013-01-09 10:38:00,
2013-01-09 03:43:00,26.7,11.0,30.51,NNW,337,3.0,4.0,51,0.00,,,0.00,Wunderground v.1.15,2013-01-09 10:43:00,
2013-01-09 03:53:00,26.8,11.1,30.53,ESE,104,2.0,3.0,51,0.00,,,0.00,Wunderground v.1.15,2013-01-09 10:53:00,
2013-01-09 03:58:00,26.7,11.0,30.53,SE,131,1.0,1.0,51,0.00,,,0.00,Wunderground v.1.15,2013-01-09 10:58:00,
2013-01-09 04:08:00,26.3,10.6,30.55,SE,124,0.0,0.0,51,0.00,,,0.00,Wunderground v.1.15,2013-01-09 11:08:00,
2013-01-09 04:13:00,26.1,10.9,30.55,NE,44,0.0,0.0,52,0.00,,,0.00,Wunderground v.1.15,2013-01-09 11:13:00,
2013-01-09 04:18:00,26.1,10.9,30.55,NE,44,0.0,0.0,52,0.00,,,0.00,Wunderground v.1.15,2013-01-09 11:18:00,
2013-01-09 04:28:00,26.1,11.7,30.55,NNE,23,0.0,0.0,54,0.00,,,0.00,Wunderground v.1.15,2013-01-09 11:28:00,
2013-01-09 04:38:00,25.8,11.0,30.56,WNW,299,0.0,0.0,53,0.00,,,0.00,Wunderground v.1.15,2013-01-09 11:38:00,
2013-01-09 04:48:00,25.3,11.0,30.57,East,98,0.0,0.0,54,0.00,,,0.00,Wunderground v.1.15,2013-01-09 11:48:00,
2013-01-09 04:58:00,25.1,11.2,30.56,ESE,120,0.0,0.0,55,0.00,,,0.00,Wunderground v.1.15,2013-01-09 11:58:00,
2013-01-09 05:08:00,24.7,11.2,30.57,NNW,335,0.0,0.0,56,0.00,,,0.00,Wunderground v.1.15,2013-01-09 12:08:00,
2013-01-09 05:13:00,24.6,11.1,30.57,NNW,335,0.0,0.0,56,0.00,,,0.00,Wunderground v.1.15,2013-01-09 12:13:00,
2013-01-09 05:23:00,24.0,11.3,30.57,North,1,0.0,0.0,58,0.00,,,0.00,Wunderground v.1.15,2013-01-09 12:23:00,
2013-01-09 05:33:00,24.3,11.2,30.57,NNW,347,1.0,1.0,57,0.00,,,0.00,Wunderground v.1.15,2013-01-09 12:33:00,
2013-01-09 05:43:00,24.9,11.0,30.58,NNE,32,1.0,1.0,55,0.00,,,0.00,Wunderground v.1.15,2013-01-09 12:43:00,
2013-01-09 05:48:00,24.7,11.2,30.58,SE,136,0.0,0.0,56,0.00,,,0.00,Wunderground v.1.15,2013-01-09 12:48:00,
2013-01-09 05:58:00,25.1,11.6,30.58,NE,44,0.0,0.0,56,0.00,,,0.00,Wunderground v.1.15,2013-01-09 12:58:00,
2013-01-09 06:08:00,26.5,11.7,30.58,North,7,1.0,1.0,53,0.00,,,0.00,Wunderground v.1.15,2013-01-09 13:08:00,
2013-01-09 06:13:00,27.0,11.7,30.58,North,9,2.0,2.0,52,0.00,,,0.00,Wunderground v.1.15,2013-01-09 13:13:00,
2013-01-09 06:23:00,27.5,11.7,30.59,NNW,334,2.0,3.0,51,0.00,,,0.00,Wunderground v.1.15,2013-01-09 13:23:00,
2013-01-09 06:33:00,27.7,12.3,30.59,NNW,331,3.0,3.0,52,0.00,,,0.00,Wunderground v.1.15,2013-01-09 13:33:00,
2013-01-09 06:38:00,27.8,12.4,30.59,North,352,2.0,2.0,52,0.00,,,0.00,Wunderground v.1.15,2013-01-09 13:38:00,
2013-01-09 06:48:00,27.6,12.2,30.60,SSW,193,1.0,2.0,52,0.00,,,0.00,Wunderground v.1.15,2013-01-09 13:48:00,
2013-01-09 06:58:00,26.8,12.4,30.61,SSW,212,0.0,1.0,54,0.00,,,0.00,Wunderground v.1.15,2013-01-09 13:58:00,
2013-01-09 07:08:00,26.1,12.5,30.61,WSW,250,0.0,0.0,56,0.00,,,0.00,Wunderground v.1.15,2013-01-09 14:08:00,
2013-01-09 07:13:00,25.7,12.2,30.61,SSE,160,1.0,1.0,56,0.00,,,0.00,Wunderground v.1.15,2013-01-09 14:13:00,
2013-01-09 07:23:00,25.0,12.3,30.61,West,277,0.0,1.0,58,0.00,,,0.00,Wunderground v.1.15,2013-01-09 14:23:00,
2013-01-09 07:28:00,24.8,12.1,30.61,NNW,347,0.0,0.0,58,0.00,,,0.00,Wunderground v.1.15,2013-01-09 14:28:00,
2013-01-09 07:38:00,24.6,11.9,30.62,WNW,284,0.0,0.0,58,0.00,,,0.00,Wunderground v.1.15,2013-01-09 14:38:00,
2013-01-09 07:48:00,24.4,11.3,30.63,NNE,27,1.0,3.0,57,0.00,,,0.00,Wunderground v.1.15,2013-01-09 14:48:00,
2013-01-09 07:53:00,24.7,11.2,30.62,NW,315,2.0,3.0,56,0.00,,,0.00,Wunderground v.1.15,2013-01-09 14:53:00,
2013-01-09 07:58:00,25.3,11.4,30.63,NNE,18,2.0,2.0,55,0.00,,,0.00,Wunderground v.1.15,2013-01-09 14:58:00,
2013-01-09 08:08:00,25.8,11.0,30.64,NNW,333,2.0,3.0,53,0.00,,,0.00,Wunderground v.1.15,2013-01-09 15:08:00,
2013-01-09 08:13:00,26.1,11.3,30.65,NE,39,2.0,3.0,53,0.00,,,0.00,Wunderground v.1.15,2013-01-09 15:13:00,
2013-01-09 08:23:00,26.4,11.1,30.66,NNW,329,2.0,4.0,52,0.00,,,0.00,Wunderground v.1.15,2013-01-09 15:23:00,
2013-01-09 08:33:00,26.9,11.2,30.66,NW,311,1.0,1.0,51,0.00,,,0.00,Wunderground v.1.15,2013-01-09 15:33:00,
2013-01-09 08:38:00,27.3,11.1,30.66,NNW,327,1.0,1.0,50,0.00,,,0.00,Wunderground v.1.15,2013-01-09 15:38:00,
2013-01-09 08:48:00,27.9,11.2,30.66,NNW,340,1.0,1.0,49,0.00,,,0.00,Wunderground v.1.15,2013-01-09 15:48:00,
2013-01-09 08:53:00,28.4,11.6,30.66,NNE,13,2.0,2.0,49,0.00,,,0.00,Wunderground v.1.15,2013-01-09 15:53:00,
2013-01-09 08:58:00,28.9,11.6,30.66,NNW,327,2.0,3.0,48,0.00,,,0.00,Wunderground v.1.15,2013-01-09 15:58:00,
2013-01-09 09:08:00,29.9,11.6,30.66,NNW,342,4.0,5.0,46,0.00,,,0.00,Wunderground v.1.15,2013-01-09 16:08:00,
2013-01-09 09:18:00,30.6,11.7,30.66,NNW,336,3.0,4.0,45,0.00,,,0.00,Wunderground v.1.15,2013-01-09 16:18:00,
2013-01-09 09:28:00,31.7,12.2,30.66,NNE,17,4.0,5.0,44,0.00,,,0.00,Wunderground v.1.15,2013-01-09 16:28:00,
2013-01-09 09:38:00,32.3,12.3,30.66,North,9,4.0,4.0,43,0.00,,,0.00,Wunderground v.1.15,2013-01-09 16:38:00,
2013-01-09 09:43:00,32.6,12.0,30.66,North,1,4.0,4.0,42,0.00,,,0.00,Wunderground v.1.15,2013-01-09 16:43:00,
2013-01-09 09:53:00,33.5,12.3,30.66,North,360,4.0,4.0,41,0.00,,,0.00,Wunderground v.1.15,2013-01-09 16:53:00,
2013-01-09 09:58:00,33.8,12.6,30.66,NNE,20,4.0,4.0,41,0.00,,,0.00,Wunderground v.1.15,2013-01-09 16:58:00,
2013-01-09 10:08:00,34.5,12.6,30.66,North,354,4.0,6.0,40,0.00,,,0.00,Wunderground v.1.15,2013-01-09 17:08:00,
2013-01-09 10:13:00,34.9,12.4,30.65,WNW,294,5.0,6.0,39,0.00,,,0.00,Wunderground v.1.15,2013-01-09 17:13:00,
2013-01-09 10:18:00,35.3,12.2,30.65,NNW,335,5.0,5.0,38,0.00,,,0.00,Wunderground v.1.15,2013-01-09 17:18:00,
2013-01-09 10:23:00,35.5,12.4,30.65,North,354,5.0,5.0,38,0.00,,,0.00,Wunderground v.1.15,2013-01-09 17:23:00,
2013-01-09 10:33:00,36.4,12.6,30.64,WNW,300,4.0,5.0,37,0.00,,,0.00,Wunderground v.1.15,2013-01-09 17:33:00,
2013-01-09 10:43:00,37.2,12.7,30.63,North,354,3.0,3.0,36,0.00,,,0.00,Wunderground v.1.15,2013-01-09 17:43:00,
2013-01-09 10:53:00,38.3,13.6,30.62,NW,317,3.0,3.0,36,0.00,,,0.00,Wunderground v.1.15,2013-01-09 17:53:00,
2013-01-09 10:58:00,38.7,13.4,30.61,NNW,338,3.0,4.0,35,0.00,,,0.00,Wunderground v.1.15,2013-01-09 17:58:00,
2013-01-09 11:08:00,39.4,13.3,30.60,NNE,28,4.0,4.0,34,0.00,,,0.00,Wunderground v.1.15,2013-01-09 18:08:00,
2013-01-09 11:18:00,40.3,13.4,30.60,NW,322,5.0,5.0,33,0.00,,,0.00,Wunderground v.1.15,2013-01-09 18:18:00,
2013-01-09 11:28:00,40.8,13.2,30.59,North,358,4.0,4.0,32,0.00,,,0.00,Wunderground v.1.15,2013-01-09 18:28:00,
2013-01-09 11:33:00,41.3,12.9,30.58,NNW,335,4.0,5.0,31,0.00,,,0.00,Wunderground v.1.15,2013-01-09 18:33:00,
2013-01-09 11:43:00,42.0,13.5,30.58,North,360,5.0,6.0,31,0.00,,,0.00,Wunderground v.1.15,2013-01-09 18:43:00,
2013-01-09 11:53:00,42.6,13.3,30.57,NNW,342,4.0,6.0,30,0.00,,,0.00,Wunderground v.1.15,2013-01-09 18:53:00,
2013-01-09 11:58:00,42.9,13.5,30.56,NNW,328,4.0,4.0,30,0.00,,,0.00,Wunderground v.1.15,2013-01-09 18:58:00,
2013-01-09 12:03:00,43.3,13.9,30.56,North,360,4.0,7.0,30,0.00,,,0.00,Wunderground v.1.15,2013-01-09 19:03:00,
2013-01-09 12:08:00,43.8,13.6,30.56,NW,319,4.0,6.0,29,0.00,,,0.00,Wunderground v.1.15,2013-01-09 19:08:00,
2013-01-09 12:13:00,44.1,13.8,30.55,North,355,5.0,6.0,29,0.00,,,0.00,Wunderground v.1.15,2013-01-09 19:13:00,
2013-01-09 12:18:00,44.5,14.2,30.54,NNE,14,5.0,8.0,29,0.00,,,0.00,Wunderground v.1.15,2013-01-09 19:18:00,
2013-01-09 12:28:00,45.3,14.1,30.54,NNW,335,5.0,8.0,28,0.00,,,0.00,Wunderground v.1.15,2013-01-09 19:28:00,
2013-01-09 12:33:00,45.6,14.3,30.53,NNW,337,6.0,8.0,28,0.00,,,0.00,Wunderground v.1.15,2013-01-09 19:33:00,
2013-01-09 12:38:00,45.7,14.4,30.53,NNW,329,6.0,6.0,28,0.00,,,0.00,Wunderground v.1.15,2013-01-09 19:38:00,
2013-01-09 12:43:00,45.9,13.7,30.52,NNE,14,7.0,7.0,27,0.00,,,0.00,Wunderground v.1.15,2013-01-09 19:43:00,
2013-01-09 12:48:00,46.1,13.9,30.52,NNW,337,6.0,6.0,27,0.00,,,0.00,Wunderground v.1.15,2013-01-09 19:48:00,
2013-01-09 12:58:00,46.8,14.5,30.51,North,349,4.0,5.0,27,0.00,,,0.00,Wunderground v.1.15,2013-01-09 19:58:00,
2013-01-09 13:08:00,47.2,14.0,30.51,North,352,4.0,6.0,26,0.00,,,0.00,Wunderground v.1.15,2013-01-09 20:08:00,
2013-01-09 13:18:00,47.9,14.6,30.50,NNW,340,4.0,4.0,26,0.00,,,0.00,Wunderground v.1.15,2013-01-09 20:18:00,
2013-01-09 13:28:00,48.0,14.7,30.49,WNW,292,5.0,5.0,26,0.00,,,0.00,Wunderground v.1.15,2013-01-09 20:28:00,
2013-01-09 13:33:00,48.3,14.1,30.49,NNW,330,4.0,5.0,25,0.00,,,0.00,Wunderground v.1.15,2013-01-09 20:33:00,
2013-01-09 13:43:00,48.6,14.3,30.48,NNW,338,5.0,6.0,25,0.00,,,0.00,Wunderground v.1.15,2013-01-09 20:43:00,
2013-01-09 13:53:00,48.8,14.5,30.47,NNW,339,6.0,6.0,25,0.00,,,0.00,Wunderground v.1.15,2013-01-09 20:53:00,
2013-01-09 13:58:00,49.0,14.7,30.47,NW,309,5.0,5.0,25,0.00,,,0.00,Wunderground v.1.15,2013-01-09 20:58:00,
2013-01-09 14:08:00,49.5,14.1,30.46,NNE,16,6.0,6.0,24,0.00,,,0.00,Wunderground v.1.15,2013-01-09 21:08:00,
2013-01-09 14:18:00,49.8,14.4,30.46,NW,318,4.0,6.0,24,0.00,,,0.00,Wunderground v.1.15,2013-01-09 21:18:00,
2013-01-09 14:23:00,50.1,14.7,30.46,NW,315,4.0,6.0,24,0.00,,,0.00,Wunderground v.1.15,2013-01-09 21:23:00,
2013-01-09 14:33:00,50.5,15.0,30.46,NNW,337,5.0,9.0,24,0.00,,,0.00,Wunderground v.1.15,2013-01-09 21:33:00,
2013-01-09 14:43:00,50.8,14.3,30.46,North,358,3.0,5.0,23,0.00,,,0.00,Wunderground v.1.15,2013-01-09 21:43:00,
2013-01-09 14:48:00,50.9,14.4,30.45,NW,318,3.0,4.0,23,0.00,,,0.00,Wunderground v.1.15,2013-01-09 21:48:00,
2013-01-09 14:53:00,51.1,14.5,30.45,NNW,335,4.0,4.0,23,0.00,,,0.00,Wunderground v.1.15,2013-01-09 21:53:00,
2013-01-09 14:58:00,51.2,14.6,30.45,NNE,26,4.0,4.0,23,0.00,,,0.00,Wunderground v.1.15,2013-01-09 21:58:00,
2013-01-09 15:08:00,51.4,13.8,30.45,NNW,335,4.0,5.0,22,0.00,,,0.00,Wunderground v.1.15,2013-01-09 22:08:00,
2013-01-09 15:13:00,51.3,13.7,30.44,North,360,4.0,5.0,22,0.00,,,0.00,Wunderground v.1.15,2013-01-09 22:13:00,
2013-01-09 15:18:00,51.3,14.7,30.44,NNE,18,4.0,4.0,23,0.00,,,0.00,Wunderground v.1.15,2013-01-09 22:18:00,
2013-01-09 15:28:00,51.5,14.9,30.44,NE,41,4.0,4.0,23,0.00,,,0.00,Wunderground v.1.15,2013-01-09 22:28:00,
2013-01-09 15:38:00,51.5,13.8,30.43,NNE,12,4.0,4.0,22,0.00,,,0.00,Wunderground v.1.15,2013-01-09 22:38:00,
2013-01-09 15:43:00,51.6,15.0,30.43,North,11,4.0,4.0,23,0.00,,,0.00,Wunderground v.1.15,2013-01-09 22:43:00,
2013-01-09 15:53:00,51.8,14.1,30.43,NNW,342,3.0,6.0,22,0.00,,,0.00,Wunderground v.1.15,2013-01-09 22:53:00,
2013-01-09 15:58:00,51.6,13.9,30.42,NNW,335,3.0,4.0,22,0.00,,,0.00,Wunderground v.1.15,2013-01-09 22:58:00,
2013-01-09 16:08:00,51.4,13.8,30.42,NW,321,3.0,6.0,22,0.00,,,0.00,Wunderground v.1.15,2013-01-09 23:08:00,
2013-01-09 16:13:00,51.3,14.7,30.42,NW,324,4.0,6.0,23,0.00,,,0.00,Wunderground v.1.15,2013-01-09 23:13:00,
2013-01-09 16:18:00,51.2,13.6,30.42,NW,321,4.0,4.0,22,0.00,,,0.00,Wunderground v.1.15,2013-01-09 23:18:00,
2013-01-09 16:28:00,51.1,13.5,30.42,North,354,3.0,3.0,22,0.00,,,0.00,Wunderground v.1.15,2013-01-09 23:28:00,
2013-01-09 16:33:00,51.0,14.4,30.42,NNE,12,4.0,4.0,23,0.00,,,0.00,Wunderground v.1.15,2013-01-09 23:33:00,
2013-01-09 16:43:00,50.8,14.3,30.41,NNW,335,3.0,5.0,23,0.00,,,0.00,Wunderground v.1.15,2013-01-09 23:43:00,
2013-01-09 16:48:00,50.4,13.9,30.41,NNE,27,3.0,4.0,23,0.00,,,0.00,Wunderground v.1.15,2013-01-09 23:48:00,
2013-01-09 16:53:00,50.1,13.7,30.41,NNW,342,3.0,4.0,23,0.00,,,0.00,Wunderground v.1.15,2013-01-09 23:53:00,
2013-01-09 16:58:00,49.7,14.3,30.41,NNE,13,3.0,3.0,24,0.00,,,0.00,Wunderground v.1.15,2013-01-09 23:58:00,
2013-01-09 17:08:00,49.1,13.8,30.40,NW,319,2.0,2.0,24,0.00,,,0.00,Wunderground v.1.15,2013-01-10 00:08:00,
2013-01-09 17:13:00,48.7,13.5,30.40,NE,35,2.0,2.0,24,0.00,,,0.00,Wunderground v.1.15,2013-01-10 00:13:00,
2013-01-09 17:18:00,48.3,14.1,30.40,North,5,1.0,1.0,25,0.00,,,0.00,Wunderground v.1.15,2013-01-10 00:18:00,
2013-01-09 17:23:00,47.8,13.6,30.40,NNE,21,1.0,1.0,25,0.00,,,0.00,Wunderground v.1.15,2013-01-10 00:23:00,
2013-01-09 17:33:00,46.8,13.7,30.40,NE,39,0.0,0.0,26,0.00,,,0.00,Wunderground v.1.15,2013-01-10 00:33:00,
2013-01-09 17:43:00,46.1,13.9,30.40,NE,39,0.0,0.0,27,0.00,,,0.00,Wunderground v.1.15,2013-01-10 00:43:00,
2013-01-09 17:48:00,45.6,13.5,30.40,NE,39,0.0,0.0,27,0.00,,,0.00,Wunderground v.1.15,2013-01-10 00:48:00,
2013-01-09 17:58:00,44.6,13.5,30.40,NE,39,0.0,0.0,28,0.00,,,0.00,Wunderground v.1.15,2013-01-10 00:58:00,
2013-01-09 18:08:00,44.1,13.8,30.40,NE,39,0.0,0.0,29,0.00,,,0.00,Wunderground v.1.15,2013-01-10 01:08:00,
2013-01-09 18:18:00,43.6,14.2,30.40,NE,39,0.0,0.0,30,0.00,,,0.00,Wunderground v.1.15,2013-01-10 01:18:00,
2013-01-09 18:28:00,43.0,14.4,30.39,NE,39,0.0,0.0,31,0.00,,,0.00,Wunderground v.1.15,2013-01-10 01:28:00,
2013-01-09 18:33:00,42.5,13.9,30.40,NE,39,0.0,0.0,31,0.00,,,0.00,Wunderground v.1.15,2013-01-10 01:33:00,
2013-01-09 18:38:00,41.9,14.1,30.40,NE,39,0.0,0.0,32,0.00,,,0.00,Wunderground v.1.15,2013-01-10 01:38:00,
2013-01-09 18:48:00,40.6,14.4,30.40,NE,39,0.0,0.0,34,0.00,,,0.00,Wunderground v.1.15,2013-01-10 01:48:00,
2013-01-09 18:58:00,40.0,13.8,30.39,NE,38,0.0,0.0,34,0.00,,,0.00,Wunderground v.1.15,2013-01-10 01:58:00,
2013-01-09 19:08:00,39.1,13.7,30.39,NE,39,0.0,0.0,35,0.00,,,0.00,Wunderground v.1.15,2013-01-10 02:08:00,
2013-01-09 19:13:00,38.6,13.9,30.39,NE,39,0.0,0.0,36,0.00,,,0.00,Wunderground v.1.15,2013-01-10 02:13:00,
2013-01-09 19:23:00,38.3,14.3,30.38,SE,135,0.0,0.0,37,0.00,,,0.00,Wunderground v.1.15,2013-01-10 02:23:00,
2013-01-09 19:28:00,38.1,14.7,30.38,SE,133,0.0,0.0,38,0.00,,,0.00,Wunderground v.1.15,2013-01-10 02:28:00,
2013-01-09 19:38:00,37.1,14.4,30.38,SE,133,0.0,0.0,39,0.00,,,0.00,Wunderground v.1.15,2013-01-10 02:38:00,
2013-01-09 19:48:00,36.0,15.1,30.38,SE,134,0.0,0.0,42,0.00,,,0.00,Wunderground v.1.15,2013-01-10 02:48:00,
2013-01-09 19:58:00,35.4,14.0,30.38,West,267,0.0,0.0,41,0.00,,,0.00,Wunderground v.1.15,2013-01-10 02:58:00,
2013-01-09 20:08:00,35.0,14.7,30.38,West,267,0.0,0.0,43,0.00,,,0.00,Wunderground v.1.15,2013-01-10 03:08:00,
2013-01-09 20:13:00,34.6,14.4,30.38,ESE,114,0.0,0.0,43,0.00,,,0.00,Wunderground v.1.15,2013-01-10 03:13:00,
2013-01-09 20:18:00,34.3,14.6,30.38,ESE,117,0.0,0.0,44,0.00,,,0.00,Wunderground v.1.15,2013-01-10 03:18:00,
2013-01-09 20:28:00,34.1,14.9,30.38,ESE,122,0.0,0.0,45,0.00,,,0.00,Wunderground v.1.15,2013-01-10 03:28:00,
2013-01-09 20:33:00,34.0,14.3,30.38,West,276,0.0,0.0,44,0.00,,,0.00,Wunderground v.1.15,2013-01-10 03:33:00,
2013-01-09 20:38:00,33.6,14.5,30.38,West,277,0.0,0.0,45,0.00,,,0.00,Wunderground v.1.15,2013-01-10 03:38:00,
2013-01-09 20:43:00,33.3,14.7,30.37,West,277,0.0,0.0,46,0.00,,,0.00,Wunderground v.1.15,2013-01-10 03:43:00,
2013-01-09 20:53:00,32.8,14.3,30.37,West,278,0.0,0.0,46,0.00,,,0.00,Wunderground v.1.15,2013-01-10 03:53:00,
2013-01-09 20:58:00,32.9,14.8,30.37,ESE,102,0.0,1.0,47,0.00,,,0.00,Wunderground v.1.15,2013-01-10 03:58:00,
2013-01-09 21:08:00,33.4,14.8,30.37,WSW,249,1.0,1.0,46,0.00,,,0.00,Wunderground v.1.15,2013-01-10 04:08:00,
2013-01-09 21:13:00,33.3,14.2,30.37,WSW,249,1.0,1.0,45,0.00,,,0.00,Wunderground v.1.15,2013-01-10 04:13:00,
2013-01-09 21:18:00,33.1,14.0,30.37,WSW,249,0.0,0.0,45,0.00,,,0.00,Wunderground v.1.15,2013-01-10 04:18:00,
2013-01-09 21:28:00,32.7,14.2,30.37,ESE,119,0.0,2.0,46,0.00,,,0.00,Wunderground v.1.15,2013-01-10 04:28:00,
2013-01-09 21:38:00,32.9,13.9,30.37,WSW,257,0.0,0.0,45,0.00,,,0.00,Wunderground v.1.15,2013-01-10 04:38:00,
2013-01-09 21:48:00,32.1,14.6,30.38,WSW,257,0.0,0.0,48,0.00,,,0.00,Wunderground v.1.15,2013-01-10 04:48:00,
2013-01-09 21:53:00,31.6,14.1,30.38,WSW,257,0.0,0.0,48,0.00,,,0.00,Wunderground v.1.15,2013-01-10 04:53:00,
2013-01-09 21:58:00,31.2,14.2,30.38,SE,132,0.0,0.0,49,0.00,,,0.00,Wunderground v.1.15,2013-01-10 04:58:00,
2013-01-09 22:03:00,30.9,14.4,30.38,WSW,241,0.0,0.0,50,0.00,,,0.00,Wunderground v.1.15,2013-01-10 05:03:00,
2013-01-09 22:13:00,29.8,13.9,30.38,WSW,240,0.0,0.0,51,0.00,,,0.00,Wunderground v.1.15,2013-01-10 05:13:00,
2013-01-09 22:23:00,29.3,14.3,30.38,WSW,240,0.0,0.0,53,0.00,,,0.00,Wunderground v.1.15,2013-01-10 05:23:00,
2013-01-09 22:28:00,29.0,14.0,30.38,WSW,240,0.0,0.0,53,0.00,,,0.00,Wunderground v.1.15,2013-01-10 05:28:00,
2013-01-09 22:33:00,28.9,14.3,30.38,WSW,240,0.0,0.0,54,0.00,,,0.00,Wunderground v.1.15,2013-01-10 05:33:00,
2013-01-09 22:38:00,29.0,14.0,30.37,WSW,240,0.0,0.0,53,0.00,,,0.00,Wunderground v.1.15,2013-01-10 05:38:00,
2013-01-09 22:48:00,28.8,14.2,30.37,WSW,249,0.0,0.0,54,0.00,,,0.00,Wunderground v.1.15,2013-01-10 05:48:00,
2013-01-09 22:58:00,28.3,14.2,30.36,WSW,249,0.0,0.0,55,0.00,,,0.00,Wunderground v.1.15,2013-01-10 05:58:00,
2013-01-09 23:08:00,27.7,13.6,30.37,SE,146,0.0,0.0,55,0.00,,,0.00,Wunderground v.1.15,2013-01-10 06:08:00,
2013-01-09 23:13:00,27.8,14.1,30.37,SE,146,0.0,0.0,56,0.00,,,0.00,Wunderground v.1.15,2013-01-10 06:13:00,
2013-01-09 23:18:00,27.9,13.8,30.37,SE,146,0.0,0.0,55,0.00,,,0.00,Wunderground v.1.15,2013-01-10 06:18:00,
2013-01-09 23:28:00,27.4,13.7,30.36,SE,146,0.0,0.0,56,0.00,,,0.00,Wunderground v.1.15,2013-01-10 06:28:00,
2013-01-09 23:38:00,27.3,13.7,30.36,SSE,147,0.0,0.0,56,0.00,,,0.00,Wunderground v.1.15,2013-01-10 06:38:00,
2013-01-09 23:48:00,26.6,13.4,30.36,SE,146,0.0,0.0,57,0.00,,,0.00,Wunderground v.1.15,2013-01-10 06:48:00,
2013-01-09 23:58:00,26.8,14.0,30.35,SE,131,0.0,0.0,58,0.00,,,0.00,Wunderground v.1.15,2013-01-10 06:58:00,